Time;durP1;ratioP1;P1;durP2;ratioP2;P2;SDS_P1;SDS_P2;PMS_P1;PMS_P2;Temp;Humidity;BMP_temperature;BMP_pressure;BME280_temperature;BME280_humidity;BME280_pressure;Samples;Min_cycle;Max_cycle;Signal;HPM_P1;HPM_P2
2022/12/23 00:04:19;;;;;;;9.98;6.10;;;;;;;;;;10461158;28;20313;-76
2022/12/23 00:09:20;;;;;;;9.90;5.57;;;;;;;;;;10465365;28;20382;-75
2022/12/23 00:19:41;;;;;;;11.52;6.53;;;;;;;;;;10444928;28;20222;-74
2022/12/23 00:24:42;;;;;;;13.13;7.00;;;;;;;;;;10460349;28;20229;-75
2022/12/23 00:29:43;;;;;;;12.35;6.80;;;;;;;;;;10460483;28;20213;-74
2022/12/23 00:34:44;;;;;;;11.65;7.28;;;;;;;;;;10465117;28;20226;-76
2022/12/23 00:45:14;;;;;;;12.10;7.38;;;;;;;;;;10460374;28;20202;-77
2022/12/23 00:50:15;;;;;;;13.75;7.38;;;;;;;;;;10465489;28;20226;-78
2022/12/23 00:55:16;;;;;;;13.20;8.10;;;;;;;;;;10460690;28;20209;-77
2022/12/23 01:00:17;;;;;;;17.08;8.15;;;;;;;;;;10443527;28;20178;-77
2022/12/23 01:05:37;;;;;;;13.32;8.50;;;;;;;;;;10464500;28;20179;-77
2022/12/23 01:10:38;;;;;;;18.17;8.63;;;;;;;;;;10440708;28;20225;-76
2022/12/23 01:15:39;;;;;;;12.48;7.93;;;;;;;;;;10472016;28;20230;-76
2022/12/23 01:20:40;;;;;;;15.35;8.02;;;;;;;;;;10440990;28;20219;-76
2022/12/23 01:25:41;;;;;;;19.15;9.18;;;;;;;;;;10467298;28;20228;-77
2022/12/23 01:30:42;;;;;;;11.48;7.30;;;;;;;;;;10471854;28;20289;-77
2022/12/23 01:35:43;;;;;;;19.58;8.90;;;;;;;;;;10443127;28;20225;-76
2022/12/23 01:40:45;;;;;;;16.27;8.02;;;;;;;;;;10437524;28;20218;-76
2022/12/23 01:45:46;;;;;;;16.52;7.95;;;;;;;;;;10453106;28;20776;-77
2022/12/23 01:50:55;;;;;;;13.18;7.78;;;;;;;;;;10446424;28;20223;-77
2022/12/23 01:55:59;;;;;;;15.10;7.75;;;;;;;;;;10466232;28;20233;-77
2022/12/23 02:12:00;;;;;;;12.23;7.30;;;;;;;;;;10466756;28;20696;-77
2022/12/23 02:17:07;;;;;;;15.68;7.43;;;;;;;;;;10466949;28;20276;-77
2022/12/23 02:22:27;;;;;;;14.00;6.68;;;;;;;;;;10463764;28;20249;-76
2022/12/23 02:27:32;;;;;;;14.65;7.15;;;;;;;;;;10470728;28;20712;-77
2022/12/23 02:32:43;;;;;;;14.65;6.53;;;;;;;;;;10467374;28;20234;-77
2022/12/23 02:37:44;;;;;;;12.20;7.18;;;;;;;;;;10467754;28;20594;-77
2022/12/23 02:42:48;;;;;;;15.25;7.57;;;;;;;;;;10448812;28;20215;-77
2022/12/23 02:47:51;;;;;;;14.48;7.45;;;;;;;;;;10468859;28;20218;-77
2022/12/23 02:52:54;;;;;;;13.65;6.80;;;;;;;;;;10456006;28;20229;-77
2022/12/23 02:57:56;;;;;;;10.25;6.47;;;;;;;;;;10468165;28;20222;-77
2022/12/23 03:02:58;;;;;;;13.45;6.63;;;;;;;;;;10451669;28;20241;-77
2022/12/23 03:08:03;;;;;;;7.88;5.50;;;;;;;;;;10443706;28;20546;-77
2022/12/23 03:13:14;;;;;;;11.82;6.25;;;;;;;;;;10444049;28;20214;-78
2022/12/23 03:18:18;;;;;;;11.68;6.00;;;;;;;;;;10468355;28;20226;-77
2022/12/23 03:23:19;;;;;;;11.10;6.28;;;;;;;;;;10463358;28;20210;-76
2022/12/23 03:28:46;;;;;;;6.93;4.82;;;;;;;;;;10463489;28;20222;-76
2022/12/23 03:33:50;;;;;;;11.90;5.70;;;;;;;;;;10463559;28;20239;-76
2022/12/23 03:38:53;;;;;;;5.85;4.35;;;;;;;;;;10467098;28;20217;-77
2022/12/23 03:43:57;;;;;;;7.55;4.43;;;;;;;;;;10461502;28;20223;-76
2022/12/23 03:49:00;;;;;;;8.43;3.92;;;;;;;;;;10459463;28;20250;-77
2022/12/23 03:54:04;;;;;;;12.18;4.10;;;;;;;;;;10458052;28;20774;-77
2022/12/23 03:59:17;;;;;;;7.32;4.38;;;;;;;;;;10463386;28;20224;-77
2022/12/23 04:04:43;;;;;;;6.60;3.72;;;;;;;;;;10459018;28;20300;-77
2022/12/23 04:09:44;;;;;;;5.55;3.50;;;;;;;;;;10464437;28;20304;-76
2022/12/23 04:14:47;;;;;;;5.70;3.88;;;;;;;;;;10458879;28;20646;-77
2022/12/23 04:19:49;;;;;;;4.90;3.35;;;;;;;;;;10468521;28;20225;-77
2022/12/23 04:24:50;;;;;;;6.60;2.38;;;;;;;;;;10462031;28;20222;-77
2022/12/23 04:29:51;;;;;;;3.70;2.85;;;;;;;;;;10465853;28;20223;-76
2022/12/23 04:34:52;;;;;;;3.58;2.72;;;;;;;;;;10451600;28;20226;-77
2022/12/23 04:39:53;;;;;;;5.07;2.85;;;;;;;;;;10464550;28;20356;-77
2022/12/23 04:44:54;;;;;;;4.53;2.47;;;;;;;;;;10462762;28;20347;-77
2022/12/23 04:49:55;;;;;;;3.45;2.55;;;;;;;;;;10457549;28;20206;-78
2022/12/23 04:54:57;;;;;;;2.78;2.33;;;;;;;;;;10441307;28;20646;-77
2022/12/23 04:59:58;;;;;;;1.90;1.80;;;;;;;;;;10462410;28;20228;-78
2022/12/23 05:04:59;;;;;;;1.67;1.58;;;;;;;;;;10444580;28;20244;-77
2022/12/23 05:10:00;;;;;;;2.08;1.95;;;;;;;;;;10445371;28;20234;-77
2022/12/23 05:15:01;;;;;;;2.50;2.10;;;;;;;;;;10463392;28;20496;-77
2022/12/23 05:20:02;;;;;;;1.65;1.38;;;;;;;;;;10446923;28;20214;-75
2022/12/23 05:25:04;;;;;;;2.35;1.30;;;;;;;;;;10459056;28;20839;-77
2022/12/23 05:30:06;;;;;;;2.15;2.05;;;;;;;;;;10462079;28;20183;-77
2022/12/23 05:35:07;;;;;;;1.65;1.55;;;;;;;;;;10444977;28;20728;-77
2022/12/23 05:40:09;;;;;;;2.05;1.67;;;;;;;;;;10461529;28;20205;-77
2022/12/23 05:45:10;;;;;;;1.95;1.83;;;;;;;;;;10461950;28;20726;-77
2022/12/23 05:50:11;;;;;;;1.95;1.70;;;;;;;;;;10461245;28;20202;-76
2022/12/23 05:55:12;;;;;;;2.88;1.83;;;;;;;;;;10440781;28;20197;-75
2022/12/23 06:00:13;;;;;;;2.58;2.38;;;;;;;;;;10463447;28;20174;-73
2022/12/23 06:05:15;;;;;;;2.60;2.47;;;;;;;;;;10442689;28;20220;-74
2022/12/23 06:10:16;;;;;;;3.45;2.13;;;;;;;;;;10449643;28;20923;-74
2022/12/23 06:15:17;;;;;;;8.20;2.85;;;;;;;;;;10474236;28;20210;-75
2022/12/23 06:20:18;;;;;;;2.65;2.45;;;;;;;;;;10469188;28;20221;-75
2022/12/23 06:25:19;;;;;;;4.40;2.88;;;;;;;;;;10470101;28;20213;-74
2022/12/23 06:30:20;;;;;;;4.75;3.08;;;;;;;;;;10469299;28;20178;-75
2022/12/23 06:35:21;;;;;;;3.70;2.97;;;;;;;;;;10469376;28;20924;-77
2022/12/23 06:40:22;;;;;;;3.22;3.03;;;;;;;;;;10466465;28;20222;-77
2022/12/23 06:45:23;;;;;;;2.47;2.38;;;;;;;;;;10464345;28;20213;-77
2022/12/23 06:50:24;;;;;;;3.22;2.58;;;;;;;;;;10471920;28;20621;-77
2022/12/23 06:55:25;;;;;;;3.25;2.40;;;;;;;;;;10452984;28;20628;-77
2022/12/23 07:00:26;;;;;;;2.10;2.00;;;;;;;;;;10451685;28;20210;-76
2022/12/23 07:05:27;;;;;;;2.15;2.05;;;;;;;;;;10465464;28;20332;-77
2022/12/23 07:10:28;;;;;;;2.80;2.58;;;;;;;;;;10448208;28;20218;-77
2022/12/23 07:15:29;;;;;;;1.67;1.40;;;;;;;;;;10463955;28;20639;-77
2022/12/23 07:20:30;;;;;;;1.92;1.83;;;;;;;;;;10450528;28;20219;-76
2022/12/23 07:25:31;;;;;;;3.13;2.05;;;;;;;;;;10469995;28;20271;-77
2022/12/23 07:30:32;;;;;;;3.80;1.92;;;;;;;;;;10475258;28;20294;-76
2022/12/23 07:35:34;;;;;;;2.65;1.90;;;;;;;;;;10464749;28;20321;-76
2022/12/23 07:40:35;;;;;;;2.60;2.08;;;;;;;;;;10465895;28;20226;-78
2022/12/23 07:45:36;;;;;;;3.05;1.80;;;;;;;;;;10466045;28;20265;-77
2022/12/23 07:50:37;;;;;;;1.95;1.85;;;;;;;;;;10459914;28;20635;-75
2022/12/23 07:55:38;;;;;;;2.13;2.03;;;;;;;;;;10462300;28;20275;-75
2022/12/23 08:00:39;;;;;;;2.88;2.45;;;;;;;;;;10459584;28;20210;-81
2022/12/23 08:05:40;;;;;;;3.78;3.15;;;;;;;;;;10451946;28;20701;-82
2022/12/23 08:10:41;;;;;;;3.42;3.20;;;;;;;;;;10468186;28;20297;-74
2022/12/23 08:15:42;;;;;;;4.63;3.10;;;;;;;;;;10462157;28;20221;-74
2022/12/23 08:20:43;;;;;;;4.20;3.85;;;;;;;;;;10465403;28;20724;-74
2022/12/23 08:25:44;;;;;;;5.28;3.92;;;;;;;;;;10462818;28;20219;-79
2022/12/23 08:30:45;;;;;;;4.55;3.85;;;;;;;;;;10455693;28;20341;-80
2022/12/23 08:35:46;;;;;;;5.25;3.97;;;;;;;;;;10448431;28;20232;-80
2022/12/23 08:40:47;;;;;;;5.72;4.32;;;;;;;;;;10451366;28;20228;-81
2022/12/23 08:45:48;;;;;;;8.10;5.00;;;;;;;;;;10438511;28;20214;-80
2022/12/23 08:50:50;;;;;;;9.25;4.55;;;;;;;;;;10466461;28;20699;-83
2022/12/23 08:55:51;;;;;;;7.15;4.40;;;;;;;;;;10459564;28;20222;-81
2022/12/23 09:00:52;;;;;;;8.23;4.53;;;;;;;;;;10460462;28;20210;-81
2022/12/23 09:05:53;;;;;;;6.78;4.80;;;;;;;;;;10459492;28;20221;-81
2022/12/23 09:10:54;;;;;;;6.82;4.32;;;;;;;;;;10462455;28;20215;-81
2022/12/23 09:15:55;;;;;;;11.70;4.25;;;;;;;;;;10455310;28;20596;-81
2022/12/23 09:20:57;;;;;;;7.22;4.63;;;;;;;;;;10462529;28;20250;-80
2022/12/23 09:25:58;;;;;;;4.10;3.70;;;;;;;;;;10461690;28;20210;-81
2022/12/23 09:31:05;;;;;;;4.32;3.55;;;;;;;;;;10451913;28;20314;-82
2022/12/23 09:36:06;;;;;;;5.32;4.75;;;;;;;;;;10465047;28;20261;-81
2022/12/23 09:41:13;;;;;;;6.32;4.32;;;;;;;;;;10472241;28;20202;-81
2022/12/23 09:46:22;;;;;;;6.60;3.58;;;;;;;;;;10467549;28;20669;-81
2022/12/23 09:51:23;;;;;;;6.90;4.65;;;;;;;;;;10471733;28;20211;-78
2022/12/23 09:56:30;;;;;;;6.40;4.22;;;;;;;;;;10469423;28;20226;-82
2022/12/23 10:01:35;;;;;;;7.70;5.40;;;;;;;;;;10451722;28;20676;-81
2022/12/23 10:06:37;;;;;;;9.35;4.82;;;;;;;;;;10460871;28;20687;-82
2022/12/23 10:11:41;;;;;;;9.20;5.57;;;;;;;;;;10447346;28;20218;-81
2022/12/23 10:16:43;;;;;;;11.10;6.03;;;;;;;;;;10474864;28;20214;-81
2022/12/23 10:21:54;;;;;;;11.23;6.45;;;;;;;;;;10474065;28;20221;-81
2022/12/23 10:26:56;;;;;;;15.55;5.88;;;;;;;;;;10469078;28;20682;-81
2022/12/23 10:32:06;;;;;;;9.60;5.38;;;;;;;;;;10468033;28;20214;-79
2022/12/23 10:37:12;;;;;;;9.32;5.47;;;;;;;;;;10476852;28;20264;-78
2022/12/23 10:42:33;;;;;;;11.40;5.93;;;;;;;;;;10473954;28;20632;-86
2022/12/23 10:47:52;;;;;;;9.95;5.97;;;;;;;;;;10478159;28;20594;-90
2022/12/23 10:52:56;;;;;;;8.15;5.18;;;;;;;;;;10476760;28;20294;-88
2022/12/23 10:58:13;;;;;;;10.05;5.88;;;;;;;;;;10447810;28;20233;-88
2022/12/23 11:03:18;;;;;;;8.18;5.85;;;;;;;;;;10451075;28;20759;-86
2022/12/23 11:08:20;;;;;;;9.70;5.85;;;;;;;;;;10471021;28;20214;-83
2022/12/23 11:13:39;;;;;;;12.55;6.57;;;;;;;;;;10473272;28;20203;-84
2022/12/23 11:18:51;;;;;;;8.60;5.65;;;;;;;;;;10466133;28;20245;-87
2022/12/23 11:24:06;;;;;;;8.48;5.65;;;;;;;;;;10460696;28;20210;-88
2022/12/23 11:29:10;;;;;;;10.68;6.20;;;;;;;;;;10462317;28;20210;-87
2022/12/23 11:34:19;;;;;;;9.82;5.13;;;;;;;;;;10456360;28;20238;-87
2022/12/23 11:39:25;;;;;;;10.38;6.13;;;;;;;;;;10462757;28;20218;-87
2022/12/23 11:44:40;;;;;;;8.48;6.65;;;;;;;;;;10469650;28;20206;-90
2022/12/23 11:49:47;;;;;;;9.60;6.22;;;;;;;;;;10460394;28;20221;-84
2022/12/23 11:54:54;;;;;;;9.15;6.32;;;;;;;;;;10454032;28;20244;-85
2022/12/23 11:59:57;;;;;;;16.17;9.10;;;;;;;;;;10434463;28;20222;-84
2022/12/23 12:05:20;;;;;;;11.18;6.40;;;;;;;;;;10468500;28;20214;-84
2022/12/23 12:10:31;;;;;;;12.30;6.25;;;;;;;;;;10452033;28;20265;-87
2022/12/23 12:15:33;;;;;;;11.25;7.03;;;;;;;;;;10467595;28;20245;-83
2022/12/23 12:20:40;;;;;;;13.13;7.20;;;;;;;;;;10468931;28;20249;-87
2022/12/23 12:25:49;;;;;;;12.00;7.70;;;;;;;;;;10459575;28;20320;-86
2022/12/23 12:30:58;;;;;;;13.75;7.63;;;;;;;;;;10468273;28;20701;-91
2022/12/23 12:36:06;;;;;;;10.52;7.03;;;;;;;;;;10440312;28;20226;-87
2022/12/23 12:41:13;;;;;;;12.07;8.27;;;;;;;;;;10472153;28;20301;-84
2022/12/23 12:46:17;;;;;;;16.08;8.98;;;;;;;;;;10470922;28;20225;-91
2022/12/23 12:51:22;;;;;;;12.35;7.20;;;;;;;;;;10448152;28;20225;-85
2022/12/23 12:56:29;;;;;;;11.45;7.03;;;;;;;;;;10467038;28;20313;-86
2022/12/23 13:01:31;;;;;;;11.02;6.63;;;;;;;;;;10470819;28;20778;-87
2022/12/23 13:06:32;;;;;;;9.05;6.30;;;;;;;;;;10444749;28;20380;-82
2022/12/23 13:11:37;;;;;;;7.55;6.05;;;;;;;;;;10475873;28;21032;-80
2022/12/23 13:16:38;;;;;;;11.27;6.88;;;;;;;;;;10474277;28;20222;-79
2022/12/23 13:21:50;;;;;;;16.33;6.82;;;;;;;;;;10456722;28;20209;-79
2022/12/23 13:26:59;;;;;;;10.23;6.15;;;;;;;;;;10466741;28;20218;-78
2022/12/23 13:32:05;;;;;;;8.80;6.32;;;;;;;;;;10470150;28;20325;-77
2022/12/23 13:37:11;;;;;;;6.88;5.85;;;;;;;;;;10464968;28;21283;-76
2022/12/23 13:42:16;;;;;;;7.35;5.18;;;;;;;;;;10471541;28;20205;-80
2022/12/23 13:47:36;;;;;;;7.35;5.20;;;;;;;;;;10456478;28;20211;-79
2022/12/23 13:52:56;;;;;;;7.32;5.53;;;;;;;;;;10471830;28;20210;-79
2022/12/23 13:58:14;;;;;;;10.20;6.30;;;;;;;;;;10475645;28;20229;-81
2022/12/23 14:03:17;;;;;;;6.75;5.43;;;;;;;;;;10462939;28;20343;-80
2022/12/23 14:08:18;;;;;;;7.45;5.38;;;;;;;;;;10474442;28;20218;-78
2022/12/23 14:13:22;;;;;;;7.57;6.25;;;;;;;;;;10473810;28;21156;-81
2022/12/23 14:18:27;;;;;;;8.18;6.05;;;;;;;;;;10474958;28;20701;-85
2022/12/23 14:23:38;;;;;;;9.23;6.53;;;;;;;;;;10466970;28;20609;-83
2022/12/23 14:28:45;;;;;;;8.57;5.72;;;;;;;;;;10464135;28;20230;-81
2022/12/23 14:33:47;;;;;;;5.93;5.32;;;;;;;;;;10468560;28;20624;-80
2022/12/23 14:39:14;;;;;;;10.30;5.70;;;;;;;;;;10457948;28;20233;-80
2022/12/23 14:44:38;;;;;;;8.15;5.97;;;;;;;;;;10431701;28;20275;-80
2022/12/23 14:49:41;;;;;;;10.57;6.30;;;;;;;;;;10468703;28;20218;-79
2022/12/23 14:54:42;;;;;;;11.38;7.47;;;;;;;;;;10460952;28;20650;-80
2022/12/23 14:59:50;;;;;;;11.95;7.38;;;;;;;;;;10470878;28;20262;-83
2022/12/23 15:04:55;;;;;;;9.98;6.30;;;;;;;;;;10467652;28;20263;-78
2022/12/23 15:09:58;;;;;;;8.77;6.18;;;;;;;;;;10467155;28;20768;-79
2022/12/23 15:15:01;;;;;;;8.73;5.93;;;;;;;;;;10469969;28;20222;-80
2022/12/23 15:20:32;;;;;;;5.88;5.28;;;;;;;;;;10475436;28;20219;-74
2022/12/23 15:25:35;;;;;;;11.27;6.68;;;;;;;;;;10438452;28;20227;-77
2022/12/23 15:30:45;;;;;;;15.48;8.40;;;;;;;;;;10448614;28;20293;-79
2022/12/23 15:35:46;;;;;;;14.43;8.07;;;;;;;;;;10461825;28;20229;-79
2022/12/23 15:41:01;;;;;;;14.82;9.15;;;;;;;;;;10461313;28;20214;-79
2022/12/23 15:46:12;;;;;;;13.13;7.10;;;;;;;;;;10460126;28;20224;-79
2022/12/23 15:51:14;;;;;;;11.77;8.52;;;;;;;;;;10467532;28;20594;-79
2022/12/23 15:56:24;;;;;;;14.85;9.27;;;;;;;;;;10458636;28;20222;-78
2022/12/23 16:01:26;;;;;;;18.65;9.93;;;;;;;;;;10461615;28;20690;-78
2022/12/23 16:06:27;;;;;;;22.35;10.88;;;;;;;;;;10474920;28;20277;-78
2022/12/23 16:11:46;;;;;;;20.40;12.00;;;;;;;;;;10466556;28;20652;-77
2022/12/23 16:16:47;;;;;;;17.77;11.07;;;;;;;;;;10474126;28;20214;-77
2022/12/23 16:21:49;;;;;;;20.77;10.27;;;;;;;;;;10469142;28;20221;-73
2022/12/23 16:26:50;;;;;;;16.30;9.75;;;;;;;;;;10466079;28;20624;-81
2022/12/23 16:31:55;;;;;;;21.02;9.57;;;;;;;;;;10465893;28;20232;-81
2022/12/23 16:36:56;;;;;;;16.55;9.50;;;;;;;;;;10429903;28;20237;-75
2022/12/23 16:41:57;;;;;;;20.10;9.32;;;;;;;;;;10430694;28;20212;-81
2022/12/23 16:47:00;;;;;;;19.90;9.70;;;;;;;;;;10435079;28;20214;-76
2022/12/23 16:52:02;;;;;;;15.68;9.35;;;;;;;;;;10432168;28;20219;-78
2022/12/23 16:57:03;;;;;;;16.67;8.32;;;;;;;;;;10428628;28;20687;-78
2022/12/23 17:02:16;;;;;;;14.35;7.88;;;;;;;;;;10431764;28;20218;-80
2022/12/23 17:07:18;;;;;;;14.05;7.13;;;;;;;;;;10413688;28;20697;-81
2022/12/23 17:12:19;;;;;;;13.68;7.50;;;;;;;;;;10431559;28;20335;-80
2022/12/23 17:17:24;;;;;;;16.70;9.45;;;;;;;;;;10431101;28;20633;-80
2022/12/23 17:22:25;;;;;;;12.70;8.07;;;;;;;;;;10426461;28;20214;-81
2022/12/23 17:27:26;;;;;;;21.77;9.55;;;;;;;;;;10412808;28;20218;-81
2022/12/23 17:32:27;;;;;;;15.55;8.93;;;;;;;;;;10431948;28;20655;-81
2022/12/23 17:37:30;;;;;;;17.65;8.68;;;;;;;;;;10451459;28;20222;-80
2022/12/23 17:42:32;;;;;;;18.60;8.63;;;;;;;;;;10451182;28;20677;-81
2022/12/23 17:47:33;;;;;;;16.63;8.85;;;;;;;;;;10472907;28;20226;-80
2022/12/23 17:52:34;;;;;;;13.18;7.93;;;;;;;;;;10468164;28;20246;-81
2022/12/23 17:57:35;;;;;;;17.27;9.50;;;;;;;;;;10475479;28;20217;-80
2022/12/23 18:02:37;;;;;;;17.58;8.02;;;;;;;;;;10478171;28;20290;-81
2022/12/23 18:07:38;;;;;;;14.13;7.72;;;;;;;;;;10482065;28;20268;-80
2022/12/23 18:12:40;;;;;;;15.25;7.35;;;;;;;;;;10465850;28;20295;-82
2022/12/23 18:17:41;;;;;;;14.32;7.40;;;;;;;;;;10457522;28;20218;-80
2022/12/23 18:22:43;;;;;;;15.32;6.95;;;;;;;;;;10463973;28;20230;-81
2022/12/23 18:27:44;;;;;;;15.10;7.97;;;;;;;;;;10467075;28;20685;-80
2022/12/23 18:32:45;;;;;;;17.40;8.38;;;;;;;;;;10456933;28;20238;-78
2022/12/23 18:37:46;;;;;;;16.38;7.43;;;;;;;;;;10458284;28;20220;-79
2022/12/23 18:42:47;;;;;;;13.95;7.15;;;;;;;;;;10455585;28;20583;-78
2022/12/23 18:47:49;;;;;;;10.52;6.55;;;;;;;;;;10449237;28;20224;-79
2022/12/23 18:52:50;;;;;;;9.60;6.13;;;;;;;;;;10468581;28;20217;-80
2022/12/23 18:57:51;;;;;;;9.70;6.10;;;;;;;;;;10471603;28;20256;-80
2022/12/23 19:02:53;;;;;;;13.00;7.53;;;;;;;;;;10470498;28;20221;-79
2022/12/23 19:07:55;;;;;;;11.02;5.78;;;;;;;;;;10464154;28;20706;-83
2022/12/23 19:12:56;;;;;;;9.20;5.97;;;;;;;;;;10470453;28;20221;-76
2022/12/23 19:17:57;;;;;;;10.55;6.85;;;;;;;;;;10459439;28;20210;-80
2022/12/23 19:22:58;;;;;;;12.80;6.80;;;;;;;;;;10472619;28;20596;-84
2022/12/23 19:27:59;;;;;;;10.63;6.05;;;;;;;;;;10468954;28;20790;-79
2022/12/23 19:33:00;;;;;;;11.73;6.30;;;;;;;;;;10455848;28;20230;-77
2022/12/23 19:38:01;;;;;;;12.02;6.18;;;;;;;;;;10467815;28;20716;-78
2022/12/23 19:43:02;;;;;;;10.95;6.63;;;;;;;;;;10470891;28;20225;-78
2022/12/23 19:48:03;;;;;;;10.55;6.20;;;;;;;;;;10465017;28;20226;-77
2022/12/23 19:53:04;;;;;;;9.68;5.78;;;;;;;;;;10451692;28;20638;-77
2022/12/23 19:58:05;;;;;;;9.43;5.53;;;;;;;;;;10448240;28;20217;-77
2022/12/23 20:03:06;;;;;;;9.88;4.95;;;;;;;;;;10445206;28;20875;-76
2022/12/23 20:08:07;;;;;;;8.07;5.43;;;;;;;;;;10458226;28;20221;-77
2022/12/23 20:13:09;;;;;;;8.15;5.53;;;;;;;;;;10457838;28;20224;-77
2022/12/23 20:18:10;;;;;;;7.88;4.70;;;;;;;;;;10445852;28;20346;-76
2022/12/23 20:23:11;;;;;;;6.93;4.65;;;;;;;;;;10453034;28;20214;-78
2022/12/23 20:28:12;;;;;;;7.82;5.15;;;;;;;;;;10458764;28;20698;-78
2022/12/23 20:33:14;;;;;;;8.18;5.03;;;;;;;;;;10456750;28;20230;-80
2022/12/23 20:38:15;;;;;;;12.07;6.38;;;;;;;;;;10441260;28;20248;-81
2022/12/23 20:43:16;;;;;;;12.63;6.50;;;;;;;;;;10463458;28;20221;-84
2022/12/23 20:48:17;;;;;;;8.27;5.72;;;;;;;;;;10447185;28;20219;-84
2022/12/23 20:53:18;;;;;;;9.18;5.43;;;;;;;;;;10466433;28;20218;-86
2022/12/23 21:03:39;;;;;;;8.32;5.63;;;;;;;;;;10458668;28;20220;-85
2022/12/23 21:08:42;;;;;;;8.20;5.60;;;;;;;;;;10463856;28;20762;-85
2022/12/23 21:13:46;;;;;;;9.80;6.00;;;;;;;;;;10463407;28;20206;-84
2022/12/23 21:18:51;;;;;;;10.65;5.50;;;;;;;;;;10450991;28;20309;-85
2022/12/23 21:23:53;;;;;;;10.57;6.28;;;;;;;;;;10458798;28;20210;-82
2022/12/23 21:28:58;;;;;;;8.30;5.40;;;;;;;;;;10456497;28;20222;-73
2022/12/23 21:33:59;;;;;;;7.32;5.72;;;;;;;;;;10465236;28;20230;-75
2022/12/23 21:39:00;;;;;;;7.47;5.68;;;;;;;;;;10466812;28;20280;-76
2022/12/23 21:44:01;;;;;;;9.68;5.65;;;;;;;;;;10471184;28;20256;-77
2022/12/23 21:49:03;;;;;;;7.95;4.88;;;;;;;;;;10468550;28;20218;-77
2022/12/23 21:54:04;;;;;;;10.55;5.45;;;;;;;;;;10470123;28;20237;-76
2022/12/23 21:59:06;;;;;;;7.45;5.03;;;;;;;;;;10448052;28;20283;-76
2022/12/23 22:04:07;;;;;;;9.05;4.70;;;;;;;;;;10473521;28;20242;-78
2022/12/23 22:09:10;;;;;;;4.85;4.45;;;;;;;;;;10474981;28;20207;-77
2022/12/23 22:14:12;;;;;;;4.97;4.47;;;;;;;;;;10441132;28;20251;-77
2022/12/23 22:19:13;;;;;;;7.10;4.82;;;;;;;;;;10453920;28;20313;-77
2022/12/23 22:24:14;;;;;;;4.43;4.13;;;;;;;;;;10469129;28;20202;-77
2022/12/23 22:29:15;;;;;;;4.45;4.05;;;;;;;;;;10455030;28;20695;-78
2022/12/23 22:34:21;;;;;;;5.80;4.80;;;;;;;;;;10470953;28;20239;-75
2022/12/23 22:39:22;;;;;;;6.88;4.05;;;;;;;;;;10468097;28;20222;-77
2022/12/23 22:44:23;;;;;;;5.13;4.40;;;;;;;;;;10448565;28;20207;-76
2022/12/23 22:49:24;;;;;;;6.82;5.15;;;;;;;;;;10470800;28;20210;-76
2022/12/23 22:54:25;;;;;;;5.50;4.88;;;;;;;;;;10468251;28;20218;-75
2022/12/23 22:59:26;;;;;;;5.38;4.72;;;;;;;;;;10467919;28;20589;-77
2022/12/23 23:04:27;;;;;;;7.75;5.40;;;;;;;;;;10471537;28;20276;-76
2022/12/23 23:09:29;;;;;;;6.00;4.40;;;;;;;;;;10459112;28;20240;-75
2022/12/23 23:14:51;;;;;;;6.32;4.35;;;;;;;;;;10442124;28;20337;-77
2022/12/23 23:19:51;;;;;;;5.43;4.25;;;;;;;;;;10470102;28;20222;-76
2022/12/23 23:24:52;;;;;;;3.47;3.10;;;;;;;;;;10451392;28;20214;-76
2022/12/23 23:29:53;;;;;;;3.20;3.00;;;;;;;;;;10451116;28;20207;-76
2022/12/23 23:34:55;;;;;;;2.83;2.58;;;;;;;;;;10456878;28;20230;-75
2022/12/23 23:39:56;;;;;;;3.17;2.88;;;;;;;;;;10472054;28;20222;-76
2022/12/23 23:44:57;;;;;;;2.75;2.55;;;;;;;;;;10469829;28;20214;-78
2022/12/23 23:49:58;;;;;;;2.63;2.53;;;;;;;;;;10465477;28;20224;-78
2022/12/23 23:54:59;;;;;;;2.65;2.38;;;;;;;;;;10470425;28;20218;-78
